sensor_id;sensor_type;location;lat;lon;timestamp;temperature;humidity
67942;SHT31;54731;42.600;23.476;2024-03-08T00:01:38;4.23;86.96
67942;SHT31;54731;42.600;23.476;2024-03-08T00:04:03;4.13;86.81
67942;SHT31;54731;42.600;23.476;2024-03-08T00:06:28;4.10;86.87
67942;SHT31;54731;42.600;23.476;2024-03-08T00:08:54;4.13;87.00
67942;SHT31;54731;42.600;23.476;2024-03-08T00:11:19;4.13;87.02
67942;SHT31;54731;42.600;23.476;2024-03-08T00:13:44;4.21;86.93
67942;SHT31;54731;42.600;23.476;2024-03-08T00:16:10;4.29;86.72
67942;SHT31;54731;42.600;23.476;2024-03-08T00:18:35;4.23;86.68
67942;SHT31;54731;42.600;23.476;2024-03-08T00:21:00;4.23;86.55
67942;SHT31;54731;42.600;23.476;2024-03-08T00:23:26;4.24;86.53
67942;SHT31;54731;42.600;23.476;2024-03-08T00:25:51;4.21;86.47
67942;SHT31;54731;42.600;23.476;2024-03-08T00:28:16;4.27;86.47
67942;SHT31;54731;42.600;23.476;2024-03-08T00:30:42;4.23;86.44
67942;SHT31;54731;42.600;23.476;2024-03-08T00:33:07;4.19;86.49
67942;SHT31;54731;42.600;23.476;2024-03-08T00:35:32;4.20;86.46
67942;SHT31;54731;42.600;23.476;2024-03-08T00:37:57;4.20;86.37
67942;SHT31;54731;42.600;23.476;2024-03-08T00:40:23;4.19;86.33
67942;SHT31;54731;42.600;23.476;2024-03-08T00:42:48;4.11;86.45
67942;SHT31;54731;42.600;23.476;2024-03-08T00:45:13;4.14;86.47
67942;SHT31;54731;42.600;23.476;2024-03-08T00:47:39;4.21;86.32
67942;SHT31;54731;42.600;23.476;2024-03-08T00:50:04;4.24;86.18
67942;SHT31;54731;42.600;23.476;2024-03-08T00:52:30;4.27;85.98
67942;SHT31;54731;42.600;23.476;2024-03-08T00:54:55;4.24;85.99
67942;SHT31;54731;42.600;23.476;2024-03-08T00:57:21;4.26;86.04
67942;SHT31;54731;42.600;23.476;2024-03-08T00:59:46;4.24;85.98
67942;SHT31;54731;42.600;23.476;2024-03-08T01:02:11;4.26;86.00
67942;SHT31;54731;42.600;23.476;2024-03-08T01:04:37;4.32;85.98
67942;SHT31;54731;42.600;23.476;2024-03-08T01:07:02;4.30;85.93
67942;SHT31;54731;42.600;23.476;2024-03-08T01:09:28;4.16;86.27
67942;SHT31;54731;42.600;23.476;2024-03-08T01:11:54;4.06;86.69
67942;SHT31;54731;42.600;23.476;2024-03-08T01:14:23;4.00;87.03
67942;SHT31;54731;42.600;23.476;2024-03-08T01:16:49;4.02;87.10
67942;SHT31;54731;42.600;23.476;2024-03-08T01:19:15;3.97;87.16
67942;SHT31;54731;42.600;23.476;2024-03-08T01:21:41;4.03;87.21
67942;SHT31;54731;42.600;23.476;2024-03-08T01:24:06;4.03;87.34
67942;SHT31;54731;42.600;23.476;2024-03-08T01:26:31;4.00;87.40
67942;SHT31;54731;42.600;23.476;2024-03-08T01:28:57;3.97;87.55
67942;SHT31;54731;42.600;23.476;2024-03-08T01:31:22;3.87;87.69
67942;SHT31;54731;42.600;23.476;2024-03-08T01:33:47;3.71;88.11
67942;SHT31;54731;42.600;23.476;2024-03-08T01:36:13;3.76;88.33
67942;SHT31;54731;42.600;23.476;2024-03-08T01:38:38;3.87;88.34
67942;SHT31;54731;42.600;23.476;2024-03-08T01:41:03;3.99;88.02
67942;SHT31;54731;42.600;23.476;2024-03-08T01:43:29;4.10;87.81
67942;SHT31;54731;42.600;23.476;2024-03-08T01:45:55;4.13;87.57
67942;SHT31;54731;42.600;23.476;2024-03-08T01:48:22;4.17;87.42
67942;SHT31;54731;42.600;23.476;2024-03-08T01:50:48;4.20;87.27
67942;SHT31;54731;42.600;23.476;2024-03-08T01:53:13;4.24;87.12
67942;SHT31;54731;42.600;23.476;2024-03-08T01:55:39;4.30;86.89
67942;SHT31;54731;42.600;23.476;2024-03-08T01:58:09;4.26;86.73
67942;SHT31;54731;42.600;23.476;2024-03-08T02:00:35;4.29;86.78
67942;SHT31;54731;42.600;23.476;2024-03-08T02:03:02;4.33;86.52
67942;SHT31;54731;42.600;23.476;2024-03-08T02:05:27;4.27;86.50
67942;SHT31;54731;42.600;23.476;2024-03-08T02:07:53;4.06;87.06
67942;SHT31;54731;42.600;23.476;2024-03-08T02:10:19;3.76;88.27
67942;SHT31;54731;42.600;23.476;2024-03-08T02:12:44;3.61;88.36
67942;SHT31;54731;42.600;23.476;2024-03-08T02:15:11;3.46;88.72
67942;SHT31;54731;42.600;23.476;2024-03-08T02:17:36;3.59;88.82
67942;SHT31;54731;42.600;23.476;2024-03-08T02:20:03;3.61;88.58
67942;SHT31;54731;42.600;23.476;2024-03-08T02:22:30;3.72;88.54
67942;SHT31;54731;42.600;23.476;2024-03-08T02:24:56;3.78;88.40
67942;SHT31;54731;42.600;23.476;2024-03-08T02:27:25;3.83;88.19
67942;SHT31;54731;42.600;23.476;2024-03-08T02:29:50;3.87;88.01
67942;SHT31;54731;42.600;23.476;2024-03-08T02:32:17;3.83;87.77
67942;SHT31;54731;42.600;23.476;2024-03-08T02:34:43;3.82;87.68
67942;SHT31;54731;42.600;23.476;2024-03-08T02:37:08;3.96;87.50
67942;SHT31;54731;42.600;23.476;2024-03-08T02:39:33;4.02;87.07
67942;SHT31;54731;42.600;23.476;2024-03-08T02:41:59;4.05;86.92
67942;SHT31;54731;42.600;23.476;2024-03-08T02:44:24;4.10;86.51
67942;SHT31;54731;42.600;23.476;2024-03-08T02:46:49;4.11;86.10
67942;SHT31;54731;42.600;23.476;2024-03-08T02:49:14;4.11;86.05
67942;SHT31;54731;42.600;23.476;2024-03-08T02:51:40;4.07;86.05
67942;SHT31;54731;42.600;23.476;2024-03-08T02:54:05;4.07;86.02
67942;SHT31;54731;42.600;23.476;2024-03-08T02:56:30;4.13;85.92
67942;SHT31;54731;42.600;23.476;2024-03-08T02:58:56;4.13;85.72
67942;SHT31;54731;42.600;23.476;2024-03-08T03:01:21;4.14;85.69
67942;SHT31;54731;42.600;23.476;2024-03-08T03:03:46;4.16;85.58
67942;SHT31;54731;42.600;23.476;2024-03-08T03:06:11;4.07;85.54
67942;SHT31;54731;42.600;23.476;2024-03-08T03:08:37;3.93;85.85
67942;SHT31;54731;42.600;23.476;2024-03-08T03:11:02;3.89;86.18
67942;SHT31;54731;42.600;23.476;2024-03-08T03:13:27;3.99;86.19
67942;SHT31;54731;42.600;23.476;2024-03-08T03:15:53;3.96;85.95
67942;SHT31;54731;42.600;23.476;2024-03-08T03:18:18;3.95;85.76
67942;SHT31;54731;42.600;23.476;2024-03-08T03:20:43;3.99;85.74
67942;SHT31;54731;42.600;23.476;2024-03-08T03:23:09;3.96;85.57
67942;SHT31;54731;42.600;23.476;2024-03-08T03:25:35;4.05;85.47
67942;SHT31;54731;42.600;23.476;2024-03-08T03:28:01;4.07;85.24
67942;SHT31;54731;42.600;23.476;2024-03-08T03:30:27;4.11;85.03
67942;SHT31;54731;42.600;23.476;2024-03-08T03:32:53;4.11;84.80
67942;SHT31;54731;42.600;23.476;2024-03-08T03:35:18;4.07;84.97
67942;SHT31;54731;42.600;23.476;2024-03-08T03:37:44;4.03;85.10
67942;SHT31;54731;42.600;23.476;2024-03-08T03:40:10;3.97;85.27
67942;SHT31;54731;42.600;23.476;2024-03-08T03:42:35;3.83;85.71
67942;SHT31;54731;42.600;23.476;2024-03-08T03:45:00;3.81;86.00
67942;SHT31;54731;42.600;23.476;2024-03-08T03:47:25;3.87;85.96
67942;SHT31;54731;42.600;23.476;2024-03-08T03:49:51;3.92;85.69
67942;SHT31;54731;42.600;23.476;2024-03-08T03:52:16;3.90;85.66
67942;SHT31;54731;42.600;23.476;2024-03-08T03:54:41;3.92;85.61
67942;SHT31;54731;42.600;23.476;2024-03-08T03:57:07;3.90;85.68
67942;SHT31;54731;42.600;23.476;2024-03-08T03:59:32;3.90;85.59
67942;SHT31;54731;42.600;23.476;2024-03-08T04:01:57;3.93;85.50
67942;SHT31;54731;42.600;23.476;2024-03-08T04:04:23;3.96;85.47
67942;SHT31;54731;42.600;23.476;2024-03-08T04:06:48;3.87;85.56
67942;SHT31;54731;42.600;23.476;2024-03-08T04:09:13;3.87;85.72
67942;SHT31;54731;42.600;23.476;2024-03-08T04:11:39;3.92;85.63
67942;SHT31;54731;42.600;23.476;2024-03-08T04:14:04;3.92;85.56
67942;SHT31;54731;42.600;23.476;2024-03-08T04:16:30;3.96;85.70
67942;SHT31;54731;42.600;23.476;2024-03-08T04:18:55;3.78;86.00
67942;SHT31;54731;42.600;23.476;2024-03-08T04:21:20;3.78;86.20
67942;SHT31;54731;42.600;23.476;2024-03-08T04:23:46;3.69;86.33
67942;SHT31;54731;42.600;23.476;2024-03-08T04:26:11;3.72;86.23
67942;SHT31;54731;42.600;23.476;2024-03-08T04:28:37;3.62;86.43
67942;SHT31;54731;42.600;23.476;2024-03-08T04:31:02;3.45;86.74
67942;SHT31;54731;42.600;23.476;2024-03-08T04:33:28;3.61;86.70
67942;SHT31;54731;42.600;23.476;2024-03-08T04:35:53;3.71;86.18
67942;SHT31;54731;42.600;23.476;2024-03-08T04:38:18;3.75;85.62
67942;SHT31;54731;42.600;23.476;2024-03-08T04:40:44;3.75;85.30
67942;SHT31;54731;42.600;23.476;2024-03-08T04:43:09;3.79;85.05
67942;SHT31;54731;42.600;23.476;2024-03-08T04:45:34;3.72;84.97
67942;SHT31;54731;42.600;23.476;2024-03-08T04:48:00;3.71;84.90
67942;SHT31;54731;42.600;23.476;2024-03-08T04:50:25;3.74;84.83
67942;SHT31;54731;42.600;23.476;2024-03-08T04:52:50;3.72;84.79
67942;SHT31;54731;42.600;23.476;2024-03-08T04:55:15;3.79;84.67
67942;SHT31;54731;42.600;23.476;2024-03-08T04:57:41;3.78;84.60
67942;SHT31;54731;42.600;23.476;2024-03-08T05:00:06;3.85;84.52
67942;SHT31;54731;42.600;23.476;2024-03-08T05:02:32;3.87;84.38
67942;SHT31;54731;42.600;23.476;2024-03-08T05:04:57;3.90;84.19
67942;SHT31;54731;42.600;23.476;2024-03-08T05:07:22;3.92;84.02
67942;SHT31;54731;42.600;23.476;2024-03-08T05:09:48;3.87;84.04
67942;SHT31;54731;42.600;23.476;2024-03-08T05:12:13;3.95;83.93
67942;SHT31;54731;42.600;23.476;2024-03-08T05:14:38;3.96;83.96
67942;SHT31;54731;42.600;23.476;2024-03-08T05:17:04;4.03;83.97
67942;SHT31;54731;42.600;23.476;2024-03-08T05:19:29;4.03;83.97
67942;SHT31;54731;42.600;23.476;2024-03-08T05:21:54;4.06;83.86
67942;SHT31;54731;42.600;23.476;2024-03-08T05:24:20;4.11;83.86
67942;SHT31;54731;42.600;23.476;2024-03-08T05:26:46;4.16;83.76
67942;SHT31;54731;42.600;23.476;2024-03-08T05:29:11;4.21;83.45
67942;SHT31;54731;42.600;23.476;2024-03-08T05:31:48;4.20;83.41
67942;SHT31;54731;42.600;23.476;2024-03-08T05:34:14;4.17;83.34
67942;SHT31;54731;42.600;23.476;2024-03-08T05:36:39;4.17;83.18
67942;SHT31;54731;42.600;23.476;2024-03-08T05:39:04;4.13;83.12
67942;SHT31;54731;42.600;23.476;2024-03-08T05:41:30;4.09;83.10
67942;SHT31;54731;42.600;23.476;2024-03-08T05:43:55;4.10;83.00
67942;SHT31;54731;42.600;23.476;2024-03-08T05:46:20;4.13;82.84
67942;SHT31;54731;42.600;23.476;2024-03-08T05:48:45;4.07;82.75
67942;SHT31;54731;42.600;23.476;2024-03-08T05:51:11;3.99;82.70
67942;SHT31;54731;42.600;23.476;2024-03-08T05:53:36;3.97;82.85
67942;SHT31;54731;42.600;23.476;2024-03-08T05:56:01;3.97;82.82
67942;SHT31;54731;42.600;23.476;2024-03-08T05:58:27;3.99;82.91
67942;SHT31;54731;42.600;23.476;2024-03-08T06:00:52;4.06;82.74
67942;SHT31;54731;42.600;23.476;2024-03-08T06:03:17;4.02;82.68
67942;SHT31;54731;42.600;23.476;2024-03-08T06:05:43;4.06;82.62
67942;SHT31;54731;42.600;23.476;2024-03-08T06:08:08;3.97;82.33
67942;SHT31;54731;42.600;23.476;2024-03-08T06:10:33;4.06;82.40
67942;SHT31;54731;42.600;23.476;2024-03-08T06:12:59;4.06;82.36
67942;SHT31;54731;42.600;23.476;2024-03-08T06:15:24;4.09;82.27
67942;SHT31;54731;42.600;23.476;2024-03-08T06:17:50;3.92;82.54
67942;SHT31;54731;42.600;23.476;2024-03-08T06:20:15;3.76;82.91
67942;SHT31;54731;42.600;23.476;2024-03-08T06:22:40;3.86;82.75
67942;SHT31;54731;42.600;23.476;2024-03-08T06:25:07;3.96;82.57
67942;SHT31;54731;42.600;23.476;2024-03-08T06:27:32;3.93;81.99
67942;SHT31;54731;42.600;23.476;2024-03-08T06:29:58;4.03;81.85
67942;SHT31;54731;42.600;23.476;2024-03-08T06:32:23;4.02;81.34
67942;SHT31;54731;42.600;23.476;2024-03-08T06:34:48;4.00;81.64
67942;SHT31;54731;42.600;23.476;2024-03-08T06:37:14;4.03;81.79
67942;SHT31;54731;42.600;23.476;2024-03-08T06:39:39;4.05;81.75
67942;SHT31;54731;42.600;23.476;2024-03-08T06:42:04;4.07;81.66
67942;SHT31;54731;42.600;23.476;2024-03-08T06:44:29;3.97;81.62
67942;SHT31;54731;42.600;23.476;2024-03-08T06:46:55;4.02;81.86
67942;SHT31;54731;42.600;23.476;2024-03-08T06:49:20;3.99;81.65
67942;SHT31;54731;42.600;23.476;2024-03-08T06:51:45;4.05;81.64
67942;SHT31;54731;42.600;23.476;2024-03-08T06:54:11;4.09;81.22
67942;SHT31;54731;42.600;23.476;2024-03-08T06:56:36;4.16;81.06
67942;SHT31;54731;42.600;23.476;2024-03-08T06:59:01;4.20;80.90
67942;SHT31;54731;42.600;23.476;2024-03-08T07:01:27;4.17;80.46
67942;SHT31;54731;42.600;23.476;2024-03-08T07:03:52;4.27;80.50
67942;SHT31;54731;42.600;23.476;2024-03-08T07:06:18;4.43;80.51
67942;SHT31;54731;42.600;23.476;2024-03-08T07:08:44;4.49;80.21
67942;SHT31;54731;42.600;23.476;2024-03-08T07:11:09;4.49;79.69
67942;SHT31;54731;42.600;23.476;2024-03-08T07:13:35;4.49;79.23
67942;SHT31;54731;42.600;23.476;2024-03-08T07:16:00;4.57;79.17
67942;SHT31;54731;42.600;23.476;2024-03-08T07:18:25;4.30;78.41
67942;SHT31;54731;42.600;23.476;2024-03-08T07:20:51;4.43;78.48
67942;SHT31;54731;42.600;23.476;2024-03-08T07:23:16;4.49;78.67
67942;SHT31;54731;42.600;23.476;2024-03-08T07:25:41;4.06;79.16
67942;SHT31;54731;42.600;23.476;2024-03-08T07:28:06;4.20;79.73
67942;SHT31;54731;42.600;23.476;2024-03-08T07:30:32;4.19;78.35
67942;SHT31;54731;42.600;23.476;2024-03-08T07:32:57;4.16;78.59
67942;SHT31;54731;42.600;23.476;2024-03-08T07:35:22;4.06;79.46
67942;SHT31;54731;42.600;23.476;2024-03-08T07:37:48;4.00;79.66
67942;SHT31;54731;42.600;23.476;2024-03-08T07:40:13;4.07;79.90
67942;SHT31;54731;42.600;23.476;2024-03-08T07:42:38;4.24;79.74
67942;SHT31;54731;42.600;23.476;2024-03-08T07:45:04;4.27;79.94
67942;SHT31;54731;42.600;23.476;2024-03-08T07:47:30;4.40;79.84
67942;SHT31;54731;42.600;23.476;2024-03-08T07:49:55;4.30;78.09
67942;SHT31;54731;42.600;23.476;2024-03-08T07:52:20;4.13;78.26
67942;SHT31;54731;42.600;23.476;2024-03-08T07:54:45;3.96;76.89
67942;SHT31;54731;42.600;23.476;2024-03-08T07:57:11;4.05;77.93
67942;SHT31;54731;42.600;23.476;2024-03-08T07:59:36;4.34;78.73
67942;SHT31;54731;42.600;23.476;2024-03-08T08:02:01;4.61;78.67
67942;SHT31;54731;42.600;23.476;2024-03-08T08:04:27;4.81;77.32
67942;SHT31;54731;42.600;23.476;2024-03-08T08:06:52;4.44;75.57
67942;SHT31;54731;42.600;23.476;2024-03-08T08:09:17;4.56;77.06
67942;SHT31;54731;42.600;23.476;2024-03-08T08:11:43;4.82;76.87
67942;SHT31;54731;42.600;23.476;2024-03-08T08:14:08;4.98;75.46
67942;SHT31;54731;42.600;23.476;2024-03-08T08:16:33;4.57;76.30
67942;SHT31;54731;42.600;23.476;2024-03-08T08:18:59;4.53;77.01
67942;SHT31;54731;42.600;23.476;2024-03-08T08:21:24;4.88;77.53
67942;SHT31;54731;42.600;23.476;2024-03-08T08:23:49;5.02;76.32
67942;SHT31;54731;42.600;23.476;2024-03-08T08:26:15;5.19;76.39
67942;SHT31;54731;42.600;23.476;2024-03-08T08:28:40;5.21;75.98
67942;SHT31;54731;42.600;23.476;2024-03-08T08:31:05;5.36;75.14
67942;SHT31;54731;42.600;23.476;2024-03-08T08:33:32;5.14;73.65
67942;SHT31;54731;42.600;23.476;2024-03-08T08:35:58;5.21;74.78
67942;SHT31;54731;42.600;23.476;2024-03-08T08:38:23;5.43;75.53
67942;SHT31;54731;42.600;23.476;2024-03-08T08:40:48;5.69;75.40
67942;SHT31;54731;42.600;23.476;2024-03-08T08:43:14;5.53;73.96
67942;SHT31;54731;42.600;23.476;2024-03-08T08:45:39;5.52;73.97
67942;SHT31;54731;42.600;23.476;2024-03-08T08:48:05;5.16;75.33
67942;SHT31;54731;42.600;23.476;2024-03-08T08:50:30;5.15;76.11
67942;SHT31;54731;42.600;23.476;2024-03-08T08:52:56;5.14;75.95
67942;SHT31;54731;42.600;23.476;2024-03-08T08:55:22;5.16;75.25
67942;SHT31;54731;42.600;23.476;2024-03-08T08:57:47;5.43;75.27
67942;SHT31;54731;42.600;23.476;2024-03-08T09:00:13;5.60;73.71
67942;SHT31;54731;42.600;23.476;2024-03-08T09:02:38;5.65;72.57
67942;SHT31;54731;42.600;23.476;2024-03-08T09:05:04;5.67;72.61
67942;SHT31;54731;42.600;23.476;2024-03-08T09:07:29;5.74;72.09
67942;SHT31;54731;42.600;23.476;2024-03-08T09:09:55;5.63;72.25
67942;SHT31;54731;42.600;23.476;2024-03-08T09:12:20;5.40;71.62
67942;SHT31;54731;42.600;23.476;2024-03-08T09:14:45;5.49;70.57
67942;SHT31;54731;42.600;23.476;2024-03-08T09:17:10;5.67;70.65
67942;SHT31;54731;42.600;23.476;2024-03-08T09:19:36;5.98;70.93
67942;SHT31;54731;42.600;23.476;2024-03-08T09:22:01;6.10;69.91
67942;SHT31;54731;42.600;23.476;2024-03-08T09:24:27;5.94;70.90
67942;SHT31;54731;42.600;23.476;2024-03-08T09:26:52;6.06;71.02
67942;SHT31;54731;42.600;23.476;2024-03-08T09:29:17;6.13;69.02
67942;SHT31;54731;42.600;23.476;2024-03-08T09:31:43;6.38;69.49
67942;SHT31;54731;42.600;23.476;2024-03-08T09:34:08;6.32;67.66
67942;SHT31;54731;42.600;23.476;2024-03-08T09:36:34;6.42;68.31
67942;SHT31;54731;42.600;23.476;2024-03-08T09:38:59;6.38;68.11
67942;SHT31;54731;42.600;23.476;2024-03-08T09:41:24;6.62;69.27
67942;SHT31;54731;42.600;23.476;2024-03-08T09:43:49;6.81;67.84
67942;SHT31;54731;42.600;23.476;2024-03-08T09:46:16;6.96;69.08
67942;SHT31;54731;42.600;23.476;2024-03-08T09:48:42;6.97;68.91
67942;SHT31;54731;42.600;23.476;2024-03-08T09:51:08;6.93;67.51
67942;SHT31;54731;42.600;23.476;2024-03-08T09:53:33;6.91;67.21
67942;SHT31;54731;42.600;23.476;2024-03-08T09:55:58;6.82;66.78
67942;SHT31;54731;42.600;23.476;2024-03-08T09:58:24;6.49;66.86
67942;SHT31;54731;42.600;23.476;2024-03-08T10:00:49;6.59;66.58
67942;SHT31;54731;42.600;23.476;2024-03-08T10:03:15;6.92;67.28
67942;SHT31;54731;42.600;23.476;2024-03-08T10:05:41;7.37;67.38
67942;SHT31;54731;42.600;23.476;2024-03-08T10:08:07;7.58;63.88
67942;SHT31;54731;42.600;23.476;2024-03-08T10:10:35;7.57;64.88
67942;SHT31;54731;42.600;23.476;2024-03-08T10:13:00;7.68;65.74
67942;SHT31;54731;42.600;23.476;2024-03-08T10:15:28;7.60;63.77
67942;SHT31;54731;42.600;23.476;2024-03-08T10:17:55;7.43;66.08
67942;SHT31;54731;42.600;23.476;2024-03-08T10:20:20;7.50;66.38
67942;SHT31;54731;42.600;23.476;2024-03-08T10:22:46;7.28;65.49
67942;SHT31;54731;42.600;23.476;2024-03-08T10:25:11;7.31;66.41
67942;SHT31;54731;42.600;23.476;2024-03-08T10:27:40;7.40;65.37
67942;SHT31;54731;42.600;23.476;2024-03-08T10:30:07;7.61;64.89
67942;SHT31;54731;42.600;23.476;2024-03-08T10:32:35;7.80;62.90
67942;SHT31;54731;42.600;23.476;2024-03-08T10:35:00;7.80;62.84
67942;SHT31;54731;42.600;23.476;2024-03-08T10:37:26;7.73;63.65
67942;SHT31;54731;42.600;23.476;2024-03-08T10:40:03;7.78;65.26
67942;SHT31;54731;42.600;23.476;2024-03-08T10:42:31;7.48;65.01
67942;SHT31;54731;42.600;23.476;2024-03-08T10:45:05;7.47;65.47
67942;SHT31;54731;42.600;23.476;2024-03-08T10:47:38;7.44;65.20
67942;SHT31;54731;42.600;23.476;2024-03-08T10:50:32;7.34;65.73
67942;SHT31;54731;42.600;23.476;2024-03-08T10:52:58;7.40;66.21
67942;SHT31;54731;42.600;23.476;2024-03-08T10:55:24;7.43;64.68
67942;SHT31;54731;42.600;23.476;2024-03-08T10:57:50;7.73;64.50
67942;SHT31;54731;42.600;23.476;2024-03-08T11:00:16;7.88;64.12
67942;SHT31;54731;42.600;23.476;2024-03-08T11:02:44;7.91;64.81
67942;SHT31;54731;42.600;23.476;2024-03-08T11:05:11;7.99;64.36
67942;SHT31;54731;42.600;23.476;2024-03-08T11:07:42;8.24;64.50
67942;SHT31;54731;42.600;23.476;2024-03-08T11:10:19;8.28;63.29
67942;SHT31;54731;42.600;23.476;2024-03-08T11:12:45;8.32;62.68
67942;SHT31;54731;42.600;23.476;2024-03-08T11:15:11;8.33;60.92
67942;SHT31;54731;42.600;23.476;2024-03-08T11:20:02;8.22;61.73
67942;SHT31;54731;42.600;23.476;2024-03-08T11:22:29;8.28;60.94
67942;SHT31;54731;42.600;23.476;2024-03-08T11:25:08;8.42;61.02
67942;SHT31;54731;42.600;23.476;2024-03-08T11:27:35;8.62;61.07
67942;SHT31;54731;42.600;23.476;2024-03-08T11:30:05;8.87;60.66
67942;SHT31;54731;42.600;23.476;2024-03-08T11:32:30;8.83;59.77
67942;SHT31;54731;42.600;23.476;2024-03-08T11:34:56;8.93;59.20
67942;SHT31;54731;42.600;23.476;2024-03-08T11:37:22;8.59;58.96
67942;SHT31;54731;42.600;23.476;2024-03-08T11:39:48;8.57;60.34
67942;SHT31;54731;42.600;23.476;2024-03-08T11:42:14;8.32;61.68
67942;SHT31;54731;42.600;23.476;2024-03-08T11:44:39;8.28;61.02
67942;SHT31;54731;42.600;23.476;2024-03-08T11:47:09;8.29;61.38
67942;SHT31;54731;42.600;23.476;2024-03-08T11:49:34;8.50;62.33
67942;SHT31;54731;42.600;23.476;2024-03-08T11:52:00;8.45;61.42
67942;SHT31;54731;42.600;23.476;2024-03-08T11:54:25;8.52;62.43
67942;SHT31;54731;42.600;23.476;2024-03-08T11:56:52;9.06;59.73
67942;SHT31;54731;42.600;23.476;2024-03-08T11:59:17;9.14;59.68
67942;SHT31;54731;42.600;23.476;2024-03-08T12:01:42;9.65;59.73
67942;SHT31;54731;42.600;23.476;2024-03-08T12:04:12;9.48;58.31
67942;SHT31;54731;42.600;23.476;2024-03-08T12:06:38;9.48;56.75
67942;SHT31;54731;42.600;23.476;2024-03-08T12:09:04;9.91;57.47
67942;SHT31;54731;42.600;23.476;2024-03-08T12:11:29;10.09;55.72
67942;SHT31;54731;42.600;23.476;2024-03-08T12:13:54;10.03;56.02
67942;SHT31;54731;42.600;23.476;2024-03-08T12:16:20;9.78;55.85
67942;SHT31;54731;42.600;23.476;2024-03-08T12:18:45;9.48;56.33
67942;SHT31;54731;42.600;23.476;2024-03-08T12:21:12;9.17;58.05
67942;SHT31;54731;42.600;23.476;2024-03-08T12:23:38;9.23;56.67
67942;SHT31;54731;42.600;23.476;2024-03-08T12:28:35;9.42;58.01
67942;SHT31;54731;42.600;23.476;2024-03-08T12:31:00;9.30;58.66
67942;SHT31;54731;42.600;23.476;2024-03-08T12:33:26;9.24;58.48
67942;SHT31;54731;42.600;23.476;2024-03-08T12:35:53;8.64;59.86
67942;SHT31;54731;42.600;23.476;2024-03-08T12:38:19;8.77;59.21
67942;SHT31;54731;42.600;23.476;2024-03-08T12:40:45;9.04;59.32
67942;SHT31;54731;42.600;23.476;2024-03-08T12:43:10;8.99;57.23
67942;SHT31;54731;42.600;23.476;2024-03-08T12:45:35;8.94;57.56
67942;SHT31;54731;42.600;23.476;2024-03-08T12:48:01;9.16;57.62
67942;SHT31;54731;42.600;23.476;2024-03-08T12:50:26;8.84;59.17
67942;SHT31;54731;42.600;23.476;2024-03-08T12:52:51;8.83;60.25
67942;SHT31;54731;42.600;23.476;2024-03-08T12:55:17;8.87;60.48
67942;SHT31;54731;42.600;23.476;2024-03-08T12:57:42;9.11;59.09
67942;SHT31;54731;42.600;23.476;2024-03-08T13:00:08;8.86;58.59
67942;SHT31;54731;42.600;23.476;2024-03-08T13:02:33;9.13;59.01
67942;SHT31;54731;42.600;23.476;2024-03-08T13:04:59;9.08;59.27
67942;SHT31;54731;42.600;23.476;2024-03-08T13:07:24;9.20;59.06
67942;SHT31;54731;42.600;23.476;2024-03-08T13:09:50;8.91;60.49
67942;SHT31;54731;42.600;23.476;2024-03-08T13:12:15;8.74;60.07
67942;SHT31;54731;42.600;23.476;2024-03-08T13:14:41;8.87;60.03
67942;SHT31;54731;42.600;23.476;2024-03-08T13:17:06;8.86;60.22
67942;SHT31;54731;42.600;23.476;2024-03-08T13:19:31;8.73;59.74
67942;SHT31;54731;42.600;23.476;2024-03-08T13:21:57;8.64;61.21
67942;SHT31;54731;42.600;23.476;2024-03-08T13:24:22;8.74;60.30
67942;SHT31;54731;42.600;23.476;2024-03-08T13:26:47;8.88;60.52
67942;SHT31;54731;42.600;23.476;2024-03-08T13:29:13;8.79;59.14
67942;SHT31;54731;42.600;23.476;2024-03-08T13:31:38;8.69;59.56
67942;SHT31;54731;42.600;23.476;2024-03-08T13:34:03;8.70;60.25
67942;SHT31;54731;42.600;23.476;2024-03-08T13:36:29;8.81;58.66
67942;SHT31;54731;42.600;23.476;2024-03-08T13:38:54;8.99;59.14
67942;SHT31;54731;42.600;23.476;2024-03-08T13:41:19;8.83;59.08
67942;SHT31;54731;42.600;23.476;2024-03-08T13:43:46;8.93;58.73
67942;SHT31;54731;42.600;23.476;2024-03-08T13:46:11;8.67;58.81
67942;SHT31;54731;42.600;23.476;2024-03-08T13:48:37;8.55;60.34
67942;SHT31;54731;42.600;23.476;2024-03-08T13:51:02;8.13;60.70
67942;SHT31;54731;42.600;23.476;2024-03-08T13:53:28;8.12;61.63
67942;SHT31;54731;42.600;23.476;2024-03-08T13:55:53;7.99;62.66
67942;SHT31;54731;42.600;23.476;2024-03-08T13:58:18;8.19;63.85
67942;SHT31;54731;42.600;23.476;2024-03-08T14:00:44;8.42;61.23
67942;SHT31;54731;42.600;23.476;2024-03-08T14:03:10;8.42;61.73
67942;SHT31;54731;42.600;23.476;2024-03-08T14:05:35;8.25;61.14
67942;SHT31;54731;42.600;23.476;2024-03-08T14:08:01;8.36;61.04
67942;SHT31;54731;42.600;23.476;2024-03-08T14:10:27;8.55;60.56
67942;SHT31;54731;42.600;23.476;2024-03-08T14:12:52;8.67;60.00
67942;SHT31;54731;42.600;23.476;2024-03-08T14:15:17;8.67;60.40
67942;SHT31;54731;42.600;23.476;2024-03-08T14:17:43;8.74;60.95
67942;SHT31;54731;42.600;23.476;2024-03-08T14:20:08;8.50;60.09
67942;SHT31;54731;42.600;23.476;2024-03-08T14:22:34;8.69;60.15
67942;SHT31;54731;42.600;23.476;2024-03-08T14:24:59;8.62;59.96
67942;SHT31;54731;42.600;23.476;2024-03-08T14:27:24;8.67;61.23
67942;SHT31;54731;42.600;23.476;2024-03-08T14:29:50;8.79;59.79
67942;SHT31;54731;42.600;23.476;2024-03-08T14:32:15;8.76;59.46
67942;SHT31;54731;42.600;23.476;2024-03-08T14:34:41;8.60;59.72
67942;SHT31;54731;42.600;23.476;2024-03-08T14:37:06;8.93;59.64
67942;SHT31;54731;42.600;23.476;2024-03-08T14:39:31;9.01;58.56
67942;SHT31;54731;42.600;23.476;2024-03-08T14:41:57;9.00;58.72
67942;SHT31;54731;42.600;23.476;2024-03-08T14:44:22;8.91;58.96
67942;SHT31;54731;42.600;23.476;2024-03-08T14:46:47;8.83;59.26
67942;SHT31;54731;42.600;23.476;2024-03-08T14:49:13;8.67;59.27
67942;SHT31;54731;42.600;23.476;2024-03-08T14:51:38;8.79;59.51
67942;SHT31;54731;42.600;23.476;2024-03-08T14:54:03;8.67;59.97
67942;SHT31;54731;42.600;23.476;2024-03-08T14:56:29;8.64;58.83
67942;SHT31;54731;42.600;23.476;2024-03-08T14:58:54;8.33;59.70
67942;SHT31;54731;42.600;23.476;2024-03-08T15:01:19;8.21;61.06
67942;SHT31;54731;42.600;23.476;2024-03-08T15:03:45;8.38;60.52
67942;SHT31;54731;42.600;23.476;2024-03-08T15:06:10;8.29;59.59
67942;SHT31;54731;42.600;23.476;2024-03-08T15:08:39;8.11;59.21
67942;SHT31;54731;42.600;23.476;2024-03-08T15:11:05;8.03;60.28
67942;SHT31;54731;42.600;23.476;2024-03-08T15:13:30;8.18;60.67
67942;SHT31;54731;42.600;23.476;2024-03-08T15:15:56;8.18;62.07
67942;SHT31;54731;42.600;23.476;2024-03-08T15:18:25;8.09;63.92
67942;SHT31;54731;42.600;23.476;2024-03-08T15:20:50;7.81;65.95
67942;SHT31;54731;42.600;23.476;2024-03-08T15:23:15;7.94;65.99
67942;SHT31;54731;42.600;23.476;2024-03-08T15:25:41;7.98;64.82